createdAt,value
2023-06-29T00:02:34.491Z,73.59
2023-06-29T00:05:58.942Z,74.86
2023-06-29T00:09:23.127Z,75.63
2023-06-29T00:12:46.081Z,75.62
2023-06-29T00:16:08.681Z,75.86
2023-06-29T00:19:32.069Z,75.79
2023-06-29T00:22:56.448Z,75.93
2023-06-29T00:26:19.665Z,76.22
2023-06-29T00:29:43.948Z,76.55
2023-06-29T00:33:06.859Z,76.18
2023-06-29T00:36:30.098Z,75.80
2023-06-29T00:39:54.776Z,75.95
2023-06-29T00:43:18.652Z,75.65
2023-06-29T00:46:42.029Z,75.62
2023-06-29T00:50:05.897Z,77.46
2023-06-29T00:53:28.650Z,78.30
2023-06-29T00:56:52.796Z,77.83
2023-06-29T01:00:17.239Z,77.91
2023-06-29T01:03:41.997Z,77.86
2023-06-29T01:07:10.466Z,76.69
2023-06-29T01:10:36.348Z,75.14
2023-06-29T01:14:02.499Z,76.85
2023-06-29T01:17:28.816Z,77.01
2023-06-29T01:20:52.407Z,77.33
2023-06-29T01:24:17.807Z,81.81
2023-06-29T01:27:44.980Z,83.52
2023-06-29T01:31:08.137Z,83.98
2023-06-29T01:34:33.054Z,83.50
2023-06-29T01:38:01.004Z,84.25
2023-06-29T01:41:26.040Z,85.69
2023-06-29T01:44:51.023Z,85.95
2023-06-29T01:48:14.696Z,85.86
2023-06-29T01:51:37.652Z,85.71
2023-06-29T01:55:00.641Z,86.18
2023-06-29T01:58:23.479Z,86.89
2023-06-29T02:01:48.051Z,86.94
2023-06-29T02:05:10.939Z,86.09
2023-06-29T02:08:33.983Z,86.78
2023-06-29T02:11:56.838Z,88.28
2023-06-29T02:15:19.700Z,88.73
2023-06-29T02:18:43.694Z,88.51
2023-06-29T02:22:06.635Z,87.58
2023-06-29T02:25:30.021Z,88.40
2023-06-29T02:28:53.515Z,87.93
2023-06-29T02:32:16.140Z,87.90
2023-06-29T02:35:40.614Z,88.09
2023-06-29T02:39:03.376Z,87.60
2023-06-29T02:42:26.438Z,87.75
2023-06-29T02:45:49.084Z,87.93
2023-06-29T02:49:13.589Z,88.57
2023-06-29T02:52:37.467Z,87.66
2023-06-29T02:56:00.219Z,87.32
2023-06-29T02:59:23.893Z,87.49
2023-06-29T03:02:46.764Z,87.78
2023-06-29T03:06:09.914Z,87.86
2023-06-29T03:09:34.502Z,88.10
2023-06-29T03:12:57.459Z,88.98
2023-06-29T03:16:20.546Z,88.40
2023-06-29T03:19:43.590Z,88.11
2023-06-29T03:23:06.752Z,87.91
2023-06-29T03:26:31.247Z,87.54
2023-06-29T03:29:55.745Z,86.34
2023-06-29T03:33:18.605Z,85.54
2023-06-29T03:36:41.666Z,84.69
2023-06-29T03:40:04.417Z,83.44
2023-06-29T03:43:28.818Z,82.15
2023-06-29T03:46:51.666Z,80.62
2023-06-29T03:50:14.719Z,80.19
2023-06-29T03:53:37.584Z,79.17
2023-06-29T03:57:00.851Z,78.87
2023-06-29T04:00:25.040Z,78.74
2023-06-29T04:03:48.539Z,78.50
2023-06-29T04:07:11.497Z,78.22
2023-06-29T04:10:34.890Z,77.58
2023-06-29T04:13:57.996Z,77.44
2023-06-29T04:17:22.760Z,76.32
2023-06-29T04:20:45.442Z,75.31
2023-06-29T04:24:09.124Z,74.90
2023-06-29T04:27:35.758Z,75.66
2023-06-29T04:30:59.027Z,74.13
2023-06-29T04:34:23.440Z,73.73
2023-06-29T04:37:46.385Z,73.29
2023-06-29T04:41:09.035Z,73.37
2023-06-29T04:44:33.824Z,71.20
2023-06-29T04:47:58.177Z,71.40
2023-06-29T04:51:23.047Z,72.08
2023-06-29T04:54:45.983Z,71.16
2023-06-29T04:58:09.085Z,71.15
2023-06-29T05:01:32.167Z,70.98
2023-06-29T05:04:55.095Z,70.56
2023-06-29T05:08:19.258Z,68.71
2023-06-29T05:11:42.523Z,68.57
2023-06-29T05:15:05.803Z,68.54
2023-06-29T05:18:28.661Z,67.97
2023-06-29T05:21:52.037Z,68.21
2023-06-29T05:25:16.705Z,67.19
2023-06-29T05:28:39.435Z,65.52
2023-06-29T05:32:02.236Z,65.45
2023-06-29T05:35:24.966Z,65.00
2023-06-29T05:38:48.132Z,63.09
2023-06-29T05:42:12.316Z,62.76
2023-06-29T05:45:34.898Z,61.99
2023-06-29T05:48:57.631Z,62.73
2023-06-29T05:52:20.678Z,61.80
2023-06-29T05:55:43.651Z,60.65
2023-06-29T05:59:08.042Z,59.39
2023-06-29T06:02:31.305Z,59.32
2023-06-29T06:05:54.667Z,59.35
2023-06-29T06:09:19.157Z,58.73
2023-06-29T06:12:42.348Z,57.55
2023-06-29T06:16:07.220Z,58.67
2023-06-29T06:19:29.984Z,57.48
2023-06-29T06:22:52.944Z,57.68
2023-06-29T06:26:15.917Z,58.65
2023-06-29T06:29:38.968Z,57.40
2023-06-29T06:33:03.575Z,57.12
2023-06-29T06:36:27.433Z,56.94
2023-06-29T06:39:50.094Z,56.67
2023-06-29T06:43:12.836Z,55.00
2023-06-29T06:46:35.735Z,54.88
2023-06-29T06:50:00.293Z,54.41
2023-06-29T06:53:23.455Z,54.22
2023-06-29T06:56:46.319Z,53.26
2023-06-29T07:00:14.495Z,52.88
2023-06-29T07:03:36.951Z,50.94
2023-06-29T07:07:01.130Z,53.28
2023-06-29T07:10:23.883Z,52.55
2023-06-29T07:13:47.048Z,53.10
2023-06-29T07:17:10.236Z,51.01
2023-06-29T07:27:26.045Z,46.03
2023-06-29T07:30:48.737Z,47.58
2023-06-29T07:34:11.676Z,47.38
2023-06-29T07:37:35.533Z,48.81
2023-06-29T07:41:00.029Z,48.00
2023-06-29T07:44:22.899Z,47.33
2023-06-29T07:47:45.833Z,48.25
2023-06-29T07:51:08.403Z,46.44
2023-06-29T07:54:31.047Z,47.03
2023-06-29T08:01:21.194Z,46.10
2023-06-29T08:08:10.372Z,46.64
2023-06-29T08:11:33.420Z,46.61
2023-06-29T08:14:57.804Z,44.92
2023-06-29T08:18:20.460Z,44.87
2023-06-29T08:21:43.422Z,44.76
2023-06-29T08:25:06.481Z,46.12
2023-06-29T08:28:29.453Z,46.20
2023-06-29T08:31:53.951Z,44.60
2023-06-29T08:35:17.224Z,46.06
2023-06-29T08:38:40.366Z,44.12
2023-06-29T08:42:06.859Z,44.52
2023-06-29T08:45:30.884Z,45.50
2023-06-29T08:48:55.585Z,45.11
2023-06-29T08:52:20.097Z,44.40
2023-06-29T08:55:44.989Z,44.51
2023-06-29T08:59:08.558Z,44.85
2023-06-29T09:02:31.969Z,43.88
2023-06-29T09:05:57.443Z,44.62
2023-06-29T09:09:20.618Z,44.12
2023-06-29T09:12:44.485Z,44.65
2023-06-29T09:16:08.319Z,45.07
2023-06-29T09:19:32.247Z,44.49
2023-06-29T09:22:56.948Z,44.38
2023-06-29T09:26:20.528Z,43.80
2023-06-29T09:29:51.992Z,42.10
2023-06-29T09:33:17.195Z,42.64
2023-06-29T09:36:39.923Z,42.69
2023-06-29T09:40:07.405Z,42.47
2023-06-29T09:43:31.632Z,43.15
2023-06-29T09:50:22.591Z,40.45
2023-06-29T09:53:48.471Z,40.49
2023-06-29T09:57:13.813Z,41.87
2023-06-29T10:00:37.477Z,41.95
2023-06-29T10:04:00.522Z,41.45
2023-06-29T10:07:24.314Z,39.20
2023-06-29T10:10:48.274Z,40.65
2023-06-29T10:14:16.243Z,39.80
2023-06-29T10:17:47.339Z,38.38
2023-06-29T10:21:10.863Z,38.53
2023-06-29T10:24:37.307Z,38.29
2023-06-29T10:28:00.270Z,38.63
2023-06-29T10:31:34.313Z,38.47
2023-06-29T10:35:07.280Z,37.82
2023-06-29T10:38:34.637Z,39.21
2023-06-29T10:41:57.388Z,39.38
2023-06-29T10:45:36.426Z,37.78
2023-06-29T10:49:04.611Z,37.00
2023-06-29T10:52:27.210Z,38.39
2023-06-29T10:55:54.721Z,36.75
2023-06-29T10:59:19.113Z,36.76
2023-06-29T11:02:42.243Z,36.79
2023-06-29T11:06:08.413Z,35.54
2023-06-29T11:09:32.098Z,35.17
2023-06-29T11:12:56.243Z,35.97
2023-06-29T11:16:20.317Z,35.46
2023-06-29T11:19:47.215Z,37.00
2023-06-29T11:23:11.415Z,35.38
2023-06-29T11:26:34.453Z,35.86
2023-06-29T11:29:58.020Z,35.81
2023-06-29T11:33:33.792Z,35.00
2023-06-29T11:37:09.610Z,35.91
2023-06-29T11:40:39.671Z,36.57
2023-06-29T11:44:03.467Z,36.41
2023-06-29T11:47:33.381Z,36.79
2023-06-29T11:51:02.092Z,34.52
2023-06-29T11:54:25.427Z,36.07
2023-06-29T11:57:55.257Z,38.37
2023-06-29T12:01:20.406Z,36.39
2023-06-29T12:04:57.069Z,33.22
2023-06-29T12:08:22.016Z,33.35
2023-06-29T12:11:45.206Z,33.59
2023-06-29T12:15:18.115Z,33.98
2023-06-29T12:18:40.784Z,35.08
2023-06-29T12:22:04.296Z,31.17
2023-06-29T12:25:26.981Z,33.44
2023-06-29T12:28:49.834Z,34.89
2023-06-29T12:32:14.319Z,35.99
2023-06-29T12:35:37.512Z,36.46
2023-06-29T12:38:59.931Z,35.87
2023-06-29T12:42:22.784Z,35.42
2023-06-29T12:45:45.752Z,35.34
2023-06-29T12:49:09.725Z,36.08
2023-06-29T12:52:33.095Z,36.43
2023-06-29T12:55:56.265Z,38.07
2023-06-29T12:59:19.117Z,40.03
2023-06-29T13:02:42.295Z,38.66
2023-06-29T13:06:06.577Z,36.52
2023-06-29T13:09:29.429Z,37.83
2023-06-29T13:12:51.987Z,37.27
2023-06-29T13:16:15.140Z,37.19
2023-06-29T13:19:37.799Z,38.20
2023-06-29T13:23:02.498Z,39.28
2023-06-29T13:26:25.043Z,40.15
2023-06-29T13:29:48.109Z,40.26
2023-06-29T13:33:10.650Z,39.92
2023-06-29T13:36:33.505Z,39.26
2023-06-29T13:39:57.797Z,36.73
2023-06-29T13:43:20.748Z,37.36
2023-06-29T13:46:44.184Z,37.51
2023-06-29T13:50:07.802Z,36.22
2023-06-29T13:53:30.755Z,37.42
2023-06-29T13:56:55.448Z,38.27
2023-06-29T14:00:19.231Z,39.75
2023-06-29T14:03:42.375Z,39.58
2023-06-29T14:07:05.573Z,39.33
2023-06-29T14:10:29.136Z,39.22
2023-06-29T14:13:53.946Z,38.11
2023-06-29T14:17:22.651Z,38.80
2023-06-29T14:20:45.885Z,38.44
2023-06-29T14:24:08.437Z,38.42
2023-06-29T14:27:31.291Z,38.61
2023-06-29T14:30:55.503Z,38.57
2023-06-29T14:34:18.627Z,38.42
2023-06-29T14:37:41.506Z,38.32
2023-06-29T14:41:05.797Z,40.28
2023-06-29T14:44:28.620Z,40.34
2023-06-29T14:47:52.634Z,40.86
2023-06-29T14:51:15.495Z,41.15
2023-06-29T14:54:38.839Z,42.13
2023-06-29T14:58:02.074Z,42.71
2023-06-29T15:01:25.021Z,44.00
2023-06-29T15:04:49.674Z,43.12
2023-06-29T15:08:12.431Z,43.53
2023-06-29T15:11:35.289Z,43.41
2023-06-29T15:14:58.242Z,43.88
2023-06-29T15:18:21.514Z,42.87
2023-06-29T15:21:45.498Z,43.69
2023-06-29T15:25:09.928Z,44.09
2023-06-29T15:28:33.043Z,43.92
2023-06-29T15:31:56.051Z,44.06
2023-06-29T15:35:19.193Z,44.57
2023-06-29T15:38:43.968Z,44.59
2023-06-29T15:42:07.450Z,45.55
2023-06-29T15:45:30.808Z,45.49
2023-06-29T15:48:54.099Z,45.96
2023-06-29T15:52:17.327Z,46.17
2023-06-29T15:55:41.763Z,46.03
2023-06-29T15:59:04.797Z,46.35
2023-06-29T16:02:29.165Z,45.63
2023-06-29T16:05:52.152Z,45.65
2023-06-29T16:09:15.630Z,46.09
2023-06-29T16:12:40.018Z,46.63
2023-06-29T16:16:02.880Z,47.28
2023-06-29T16:19:26.047Z,47.23
2023-06-29T16:22:49.338Z,46.85
2023-06-29T16:26:13.170Z,45.59
2023-06-29T16:29:39.006Z,44.25
2023-06-29T16:33:02.122Z,42.17
2023-06-29T16:36:24.845Z,41.49
2023-06-29T16:39:47.765Z,42.68
2023-06-29T16:43:10.325Z,42.72
2023-06-29T16:46:35.399Z,42.18
2023-06-29T16:49:58.183Z,42.06
2023-06-29T16:53:20.834Z,41.91
2023-06-29T16:56:43.485Z,39.88
2023-06-29T17:00:08.328Z,40.59
2023-06-29T17:03:32.936Z,40.92
2023-06-29T17:06:55.770Z,40.34
2023-06-29T17:10:18.489Z,40.46
2023-06-29T17:13:42.344Z,41.52
2023-06-29T17:17:05.399Z,40.77
2023-06-29T17:20:30.032Z,40.39
2023-06-29T17:23:54.371Z,40.55
2023-06-29T17:27:17.481Z,40.47
2023-06-29T17:30:40.149Z,40.37
2023-06-29T17:34:03.293Z,41.17
2023-06-29T17:37:27.488Z,40.60
2023-06-29T17:40:50.547Z,40.53
2023-06-29T17:44:13.387Z,39.57
2023-06-29T17:47:36.599Z,40.56
2023-06-29T17:50:59.636Z,41.06
2023-06-29T17:54:24.344Z,41.69
2023-06-29T17:57:47.691Z,42.81
2023-06-29T18:01:10.760Z,43.12
2023-06-29T18:04:33.973Z,43.28
2023-06-29T18:07:57.592Z,43.03
2023-06-29T18:11:21.714Z,43.42
2023-06-29T18:14:44.742Z,43.76
2023-06-29T18:18:08.177Z,43.58
2023-06-29T18:21:31.180Z,43.67
2023-06-29T18:24:55.675Z,43.81
2023-06-29T18:28:20.161Z,44.30
2023-06-29T18:31:42.710Z,45.06
2023-06-29T18:35:06.511Z,45.48
2023-06-29T18:38:29.334Z,45.88
2023-06-29T18:41:52.404Z,46.84
2023-06-29T18:45:16.328Z,47.11
2023-06-29T18:48:38.864Z,48.01
2023-06-29T18:52:00.807Z,48.47
2023-06-29T18:55:22.862Z,49.00
2023-06-29T18:58:44.823Z,49.52
2023-06-29T19:02:08.484Z,49.67
2023-06-29T19:05:30.291Z,49.40
2023-06-29T19:08:52.412Z,50.31
2023-06-29T19:12:14.120Z,49.75
2023-06-29T19:15:36.121Z,50.31
2023-06-29T19:23:44.148Z,50.88
2023-06-29T19:27:07.205Z,50.98
2023-06-29T19:30:29.258Z,51.30
2023-06-29T19:33:51.007Z,51.52
2023-06-29T19:37:12.711Z,51.69
2023-06-29T19:40:35.930Z,52.76
2023-06-29T19:43:58.241Z,54.09
2023-06-29T19:47:20.107Z,53.54
2023-06-29T19:50:41.896Z,53.44
2023-06-29T19:54:03.621Z,53.42
2023-06-29T19:57:26.955Z,53.48
2023-06-29T20:00:48.858Z,54.02
2023-06-29T20:04:10.875Z,54.55
2023-06-29T20:07:32.940Z,54.16
2023-06-29T20:10:55.263Z,54.41
2023-06-29T20:14:18.643Z,54.55
2023-06-29T20:17:40.989Z,54.24
2023-06-29T20:21:02.952Z,55.30
2023-06-29T20:24:25.205Z,55.60
2023-06-29T20:27:47.354Z,55.60
2023-06-29T20:31:10.869Z,56.06
2023-06-29T20:34:32.836Z,56.26
2023-06-29T20:37:55.558Z,56.35
2023-06-29T20:41:17.634Z,56.82
2023-06-29T20:44:39.521Z,57.89
2023-06-29T20:48:02.970Z,57.06
2023-06-29T20:51:24.951Z,57.61
2023-06-29T20:54:46.728Z,59.22
2023-06-29T20:58:10.668Z,58.80
2023-06-29T21:01:32.745Z,58.76
2023-06-29T21:04:57.386Z,58.55
2023-06-29T21:08:19.338Z,59.68
2023-06-29T21:11:42.354Z,60.86
2023-06-29T21:15:05.027Z,59.23
2023-06-29T21:18:28.194Z,59.61
2023-06-29T21:21:52.195Z,59.93
2023-06-29T21:25:14.702Z,60.21
2023-06-29T21:28:37.325Z,60.07
2023-06-29T21:32:03.929Z,60.69
2023-06-29T21:35:26.640Z,60.40
2023-06-29T21:38:51.291Z,61.27
2023-06-29T21:42:13.503Z,61.33
2023-06-29T21:45:35.292Z,61.38
2023-06-29T21:48:57.382Z,61.92
2023-06-29T21:52:19.222Z,62.96
2023-06-29T21:55:43.123Z,63.50
2023-06-29T21:59:04.899Z,61.47
2023-06-29T22:02:26.813Z,61.80
2023-06-29T22:05:48.818Z,63.33
2023-06-29T22:09:10.587Z,62.96
2023-06-29T22:12:39.718Z,64.19
2023-06-29T22:16:01.314Z,65.30
2023-06-29T22:19:24.895Z,64.78
2023-06-29T22:22:46.903Z,65.70
2023-06-29T22:26:08.594Z,65.91
2023-06-29T22:29:34.738Z,67.15
2023-06-29T22:32:56.637Z,66.23
2023-06-29T22:36:19.245Z,66.65
2023-06-29T22:39:41.116Z,68.43
2023-06-29T22:43:02.944Z,67.61
2023-06-29T22:46:27.808Z,68.50
2023-06-29T22:49:52.054Z,69.92
2023-06-29T22:53:13.842Z,70.02
2023-06-29T22:56:35.486Z,70.68
2023-06-29T22:59:58.332Z,71.00
2023-06-29T23:03:22.176Z,70.71
2023-06-29T23:06:47.684Z,71.12
2023-06-29T23:10:10.151Z,70.20
2023-06-29T23:13:41.583Z,70.95
2023-06-29T23:17:04.178Z,71.18
2023-06-29T23:20:27.795Z,71.16
2023-06-29T23:23:49.606Z,72.00
2023-06-29T23:27:11.311Z,70.12
2023-06-29T23:30:33.897Z,71.18
2023-06-29T23:33:55.995Z,71.90
2023-06-29T23:37:19.346Z,72.92
2023-06-29T23:40:42.008Z,73.33
2023-06-29T23:44:06.612Z,73.84
2023-06-29T23:47:30.537Z,75.43
2023-06-29T23:50:52.293Z,75.73
2023-06-29T23:54:16.607Z,76.51
2023-06-29T23:57:39.188Z,76.61
